Time;durP1;ratioP1;P1;durP2;ratioP2;P2;SDS_P1;SDS_P2;PMS_P1;PMS_P2;Temp;Humidity;BMP_temperature;BMP_pressure;BME280_temperature;BME280_humidity;BME280_pressure;Samples;Min_cycle;Max_cycle;Signal;HPM_P1;HPM_P2
2022/12/06 00:01:45;;;;;;;7.47;3.28;;;8.00;82.70;;;;;;5033261;28;20450;-63
2022/12/06 00:04:14;;;;;;;7.25;3.42;;;8.00;82.80;;;;;;5034151;28;20033;-63
2022/12/06 00:06:43;;;;;;;7.55;3.70;;;7.90;82.70;;;;;;5041963;28;20032;-63
2022/12/06 00:09:16;;;;;;;7.18;3.15;;;7.90;82.70;;;;;;5039707;28;20068;-64
2022/12/06 00:11:42;;;;;;;7.93;3.70;;;8.00;82.80;;;;;;5039112;28;20366;-63
2022/12/06 00:14:09;;;;;;;7.03;2.95;;;8.00;82.80;;;;;;5034633;28;20032;-63
2022/12/06 00:16:35;;;;;;;8.10;3.70;;;8.00;82.80;;;;;;5040897;28;20060;-63
2022/12/06 00:19:01;;;;;;;8.60;3.55;;;8.00;82.70;;;;;;5043318;28;20060;-63
2022/12/06 00:21:32;;;;;;;7.18;3.45;;;8.00;82.70;;;;;;5039463;28;20457;-64
2022/12/06 00:24:04;;;;;;;7.82;3.67;;;8.00;82.80;;;;;;5032330;28;20351;-64
2022/12/06 00:26:31;;;;;;;7.03;3.10;;;8.00;82.80;;;;;;5040253;28;20052;-64
2022/12/06 00:28:59;;;;;;;7.80;3.45;;;8.00;82.80;;;;;;5043314;28;20037;-64
2022/12/06 00:31:26;;;;;;;7.20;3.33;;;8.00;82.80;;;;;;5036289;28;20109;-64
2022/12/06 00:33:52;;;;;;;7.35;3.42;;;8.00;82.90;;;;;;5033427;28;20026;-63
2022/12/06 00:36:24;;;;;;;7.00;3.13;;;8.00;82.90;;;;;;5030372;28;20021;-64
2022/12/06 00:38:50;;;;;;;6.07;3.00;;;8.00;82.90;;;;;;5047668;28;20017;-63
2022/12/06 00:41:19;;;;;;;6.60;3.20;;;8.00;82.90;;;;;;5038212;28;20025;-63
2022/12/06 00:43:45;;;;;;;6.60;3.33;;;8.00;82.90;;;;;;5052010;28;20133;-63
2022/12/06 00:46:22;;;;;;;6.57;3.15;;;8.00;83.00;;;;;;5037815;28;20025;-64
2022/12/06 00:48:49;;;;;;;6.88;3.30;;;8.00;82.90;;;;;;5034332;28;20076;-63
2022/12/06 00:51:16;;;;;;;6.53;3.00;;;8.00;82.90;;;;;;5038896;28;20109;-64
2022/12/06 00:53:43;;;;;;;7.93;3.30;;;8.00;82.90;;;;;;5050744;28;20147;-63
2022/12/06 00:56:10;;;;;;;6.88;3.10;;;8.00;82.90;;;;;;5039266;28;20043;-63
2022/12/06 00:58:36;;;;;;;6.05;3.05;;;8.00;82.90;;;;;;5045936;28;20029;-63
2022/12/06 01:01:17;;;;;;;7.93;3.92;;;8.00;82.90;;;;;;5038816;28;20036;-64
2022/12/06 01:03:44;;;;;;;7.50;3.35;;;8.00;82.80;;;;;;5031155;28;20026;-63
2022/12/06 01:06:12;;;;;;;6.50;3.05;;;8.00;82.80;;;;;;5044814;28;20280;-64
2022/12/06 01:08:39;;;;;;;7.75;3.60;;;8.00;82.80;;;;;;5047200;28;20044;-63
2022/12/06 01:11:06;;;;;;;7.00;3.22;;;8.00;82.90;;;;;;5040383;28;20060;-63
2022/12/06 01:13:32;;;;;;;7.93;3.78;;;8.00;82.90;;;;;;5044183;28;20349;-63
2022/12/06 01:16:07;;;;;;;6.50;3.00;;;8.00;82.90;;;;;;5047311;28;20037;-64
2022/12/06 01:18:33;;;;;;;7.20;3.30;;;8.00;82.90;;;;;;5047142;28;20090;-64
2022/12/06 01:21:04;;;;;;;8.73;3.53;;;8.00;82.90;;;;;;5042072;28;20045;-63
2022/12/06 01:23:30;;;;;;;6.88;3.42;;;8.00;82.90;;;;;;5047640;28;20495;-63
2022/12/06 01:25:55;;;;;;;6.70;3.25;;;8.00;82.90;;;;;;5049748;28;20033;-64
2022/12/06 01:28:21;;;;;;;6.85;3.45;;;8.00;82.90;;;;;;5045756;28;20021;-63
2022/12/06 01:30:46;;;;;;;7.22;3.55;;;8.00;83.50;;;;;;5042099;28;20442;-63
2022/12/06 01:33:12;;;;;;;7.03;3.50;;;8.00;82.90;;;;;;5038912;28;20056;-63
2022/12/06 01:35:40;;;;;;;7.28;3.50;;;8.00;82.90;;;;;;5055177;28;20017;-63
2022/12/06 01:38:06;;;;;;;6.55;2.88;;;8.00;82.90;;;;;;5046829;28;20091;-64
2022/12/06 01:40:37;;;;;;;8.13;3.30;;;8.00;82.80;;;;;;5053083;28;20028;-64
2022/12/06 01:43:03;;;;;;;;;;;8.10;82.80;;;;;;5038076;28;20033;-63
2022/12/06 01:45:29;;;;;;;7.15;3.10;;;8.00;82.70;;;;;;5036041;28;19909;-63
2022/12/06 01:47:54;;;;;;;9.20;3.85;;;8.00;82.70;;;;;;5038468;28;20319;-64
2022/12/06 01:50:29;;;;;;;7.93;3.80;;;8.00;82.70;;;;;;5049865;28;20512;-64
2022/12/06 01:53:02;;;;;;;9.23;3.72;;;8.00;82.70;;;;;;5037818;28;20029;-64
2022/12/06 01:55:32;;;;;;;9.32;3.53;;;8.00;82.70;;;;;;5049809;28;20366;-64
2022/12/06 01:58:05;;;;;;;7.70;3.53;;;8.00;82.70;;;;;;5042947;28;20096;-63
2022/12/06 02:00:31;;;;;;;8.23;3.70;;;8.00;82.70;;;;;;5045693;28;20037;-64
2022/12/06 02:03:00;;;;;;;7.88;3.83;;;8.00;82.70;;;;;;5040880;28;20102;-63
2022/12/06 02:05:27;;;;;;;7.68;3.33;;;8.00;82.70;;;;;;5034696;28;20063;-64
2022/12/06 02:07:54;;;;;;;8.27;4.13;;;8.00;82.70;;;;;;5046100;28;20035;-64
2022/12/06 02:10:21;;;;;;;9.98;3.63;;;8.00;82.70;;;;;;5044774;28;20032;-64
2022/12/06 02:12:51;;;;;;;7.50;3.65;;;8.00;82.70;;;;;;5036735;28;20117;-64
2022/12/06 02:15:20;;;;;;;7.53;3.43;;;8.00;82.70;;;;;;5033699;28;20082;-64
2022/12/06 02:18:10;;;;;;;6.37;3.00;;;8.00;82.70;;;;;;5037846;28;20051;-64
2022/12/06 02:20:45;;;;;;;8.45;3.65;;;8.00;82.60;;;;;;5042202;28;20053;-63
2022/12/06 02:23:20;;;;;;;7.22;3.35;;;8.00;82.70;;;;;;5034844;28;20067;-64
2022/12/06 02:26:01;;;;;;;7.00;3.50;;;8.00;82.70;;;;;;5039267;28;20089;-64
2022/12/06 02:28:39;;;;;;;8.20;3.78;;;8.00;82.70;;;;;;5042051;28;20041;-64
2022/12/06 02:31:08;;;;;;;7.20;3.65;;;8.00;82.70;;;;;;5043072;28;20029;-63
2022/12/06 02:33:37;;;;;;;9.75;3.95;;;8.00;82.70;;;;;;5035578;28;20079;-64
2022/12/06 02:36:12;;;;;;;7.28;3.55;;;8.10;83.40;;;;;;5038957;28;20021;-63
2022/12/06 02:38:49;;;;;;;8.20;3.63;;;8.10;82.80;;;;;;5043589;28;20104;-64
2022/12/06 02:41:24;;;;;;;8.80;3.85;;;8.10;82.80;;;;;;5038868;28;20033;-63
2022/12/06 02:43:55;;;;;;;7.80;3.90;;;8.10;82.70;;;;;;5032964;28;20040;-63
2022/12/06 02:46:23;;;;;;;8.32;3.88;;;8.10;82.70;;;;;;5032960;28;20116;-64
2022/12/06 02:48:52;;;;;;;7.93;3.55;;;8.00;82.70;;;;;;5033968;28;20045;-64
2022/12/06 02:51:19;;;;;;;8.60;4.22;;;8.10;82.80;;;;;;5036316;28;20036;-63
2022/12/06 02:53:49;;;;;;;9.50;3.85;;;8.00;82.70;;;;;;5037113;28;20033;-63
2022/12/06 02:56:16;;;;;;;8.63;4.28;;;8.00;82.80;;;;;;5035222;28;20032;-63
2022/12/06 02:58:41;;;;;;;7.68;3.80;;;8.10;82.80;;;;;;5049087;28;20044;-63
2022/12/06 03:01:28;;;;;;;8.38;3.58;;;8.10;82.80;;;;;;5035823;28;20029;-63
2022/12/06 03:04:00;;;;;;;7.45;3.78;;;8.10;82.70;;;;;;5038593;28;20022;-63
2022/12/06 03:06:48;;;;;;;11.90;3.97;;;8.10;82.80;;;;;;5038029;28;20512;-64
2022/12/06 03:09:43;;;;;;;11.38;3.80;;;8.10;82.80;;;;;;5046823;28;20302;-64
2022/12/06 03:12:29;;;;;;;7.97;3.92;;;8.00;82.70;;;;;;5033048;28;20334;-63
2022/12/06 03:15:07;;;;;;;8.45;3.60;;;8.10;82.80;;;;;;5038914;28;20041;-64
2022/12/06 03:17:40;;;;;;;9.13;3.88;;;8.00;82.80;;;;;;5043611;28;20166;-64
2022/12/06 03:20:16;;;;;;;9.30;3.85;;;8.00;82.80;;;;;;5040997;28;20037;-63
2022/12/06 03:22:49;;;;;;;7.70;3.88;;;8.00;82.80;;;;;;5031092;28;20052;-63
2022/12/06 03:25:15;;;;;;;11.90;4.35;;;8.00;82.80;;;;;;5035689;28;20040;-64
2022/12/06 03:27:42;;;;;;;8.80;4.57;;;8.00;82.80;;;;;;5042758;28;20100;-64
2022/12/06 03:30:13;;;;;;;10.93;4.00;;;8.00;82.80;;;;;;5037936;28;20477;-63
2022/12/06 03:32:42;;;;;;;10.10;4.00;;;8.00;82.80;;;;;;5040913;28;20357;-64
2022/12/06 03:35:13;;;;;;;9.00;4.78;;;8.00;82.80;;;;;;5045971;28;20025;-63
2022/12/06 03:37:43;;;;;;;8.88;4.40;;;8.00;82.80;;;;;;5035170;28;20029;-64
2022/12/06 03:40:15;;;;;;;8.55;4.28;;;8.00;82.80;;;;;;5038349;28;20454;-63
2022/12/06 03:42:41;;;;;;;10.63;5.13;;;8.00;82.90;;;;;;5038036;28;20029;-63
2022/12/06 03:45:10;;;;;;;10.37;4.23;;;8.00;82.80;;;;;;5053880;28;20381;-63
2022/12/06 03:47:44;;;;;;;9.93;4.20;;;8.00;82.90;;;;;;5043110;28;20025;-64
2022/12/06 03:50:34;;;;;;;11.07;3.90;;;8.00;82.80;;;;;;5047428;28;20343;-63
2022/12/06 03:53:01;;;;;;;8.50;4.23;;;8.00;82.80;;;;;;5039272;28;20045;-63
2022/12/06 03:55:26;;;;;;;10.40;4.25;;;8.00;82.90;;;;;;5053891;28;20353;-64
2022/12/06 03:57:52;;;;;;;9.17;4.17;;;7.90;82.80;;;;;;5044322;28;20040;-64
2022/12/06 04:00:18;;;;;;;10.35;4.38;;;7.90;82.80;;;;;;5046917;28;20029;-64
2022/12/06 04:02:44;;;;;;;12.93;4.30;;;8.00;82.90;;;;;;5035386;28;20086;-64
2022/12/06 04:05:10;;;;;;;10.90;4.55;;;8.00;82.80;;;;;;5055276;28;20385;-63
2022/12/06 04:07:36;;;;;;;11.70;4.38;;;8.00;82.80;;;;;;5034087;28;20025;-63
2022/12/06 04:10:03;;;;;;;10.77;4.37;;;7.90;82.80;;;;;;5040256;28;20032;-63
2022/12/06 04:15:15;;;;;;;8.13;3.75;;;7.90;82.90;;;;;;5042435;28;20346;-63
2022/12/06 04:20:27;;;;;;;9.00;3.83;;;7.90;82.90;;;;;;5040761;28;20081;-63
2022/12/06 04:23:03;;;;;;;8.68;4.30;;;8.00;82.90;;;;;;5038666;28;20025;-64
2022/12/06 04:25:35;;;;;;;8.88;3.65;;;7.90;82.80;;;;;;5045916;28;20388;-64
2022/12/06 04:38:59;;;;;;;7.45;3.30;;;7.90;82.90;;;;;;5041915;28;20086;-64
2022/12/06 04:44:10;;;;;;;8.13;3.35;;;7.90;82.90;;;;;;5046719;28;20045;-63
2022/12/06 04:46:35;;;;;;;9.73;4.28;;;7.90;83.00;;;;;;5046817;28;20036;-63
2022/12/06 04:49:01;;;;;;;7.57;3.33;;;7.90;82.90;;;;;;5038386;28;20469;-63
2022/12/06 04:51:27;;;;;;;11.30;4.38;;;7.80;82.90;;;;;;5034769;28;20029;-63
2022/12/06 04:53:53;;;;;;;8.60;4.10;;;7.90;82.90;;;;;;5040356;28;20026;-63
2022/12/06 04:56:19;;;;;;;7.90;3.58;;;7.80;82.80;;;;;;5045917;28;20025;-63
2022/12/06 04:58:44;;;;;;;10.00;3.67;;;7.80;82.80;;;;;;5034950;28;20431;-63
2022/12/06 05:01:10;;;;;;;8.48;4.18;;;7.80;82.80;;;;;;5050927;28;20111;-63
2022/12/06 05:03:36;;;;;;;9.80;4.15;;;7.80;82.80;;;;;;5046943;28;20017;-63
2022/12/06 05:06:01;;;;;;;9.30;4.20;;;7.80;82.80;;;;;;5035277;28;21839;-63
2022/12/06 05:08:27;;;;;;;10.10;4.57;;;7.80;82.80;;;;;;5034025;28;20045;-63
2022/12/06 05:10:53;;;;;;;9.20;3.85;;;7.80;82.80;;;;;;5044450;28;20318;-63
2022/12/06 05:13:19;;;;;;;7.07;3.33;;;7.80;82.80;;;;;;5050832;28;20021;-63
2022/12/06 05:15:53;;;;;;;9.50;3.72;;;7.80;82.80;;;;;;5049657;28;20079;-64
2022/12/06 05:18:19;;;;;;;9.70;3.90;;;7.80;82.80;;;;;;5050537;28;20017;-64
2022/12/06 05:20:45;;;;;;;12.10;3.85;;;7.80;82.80;;;;;;5047431;28;20072;-63
2022/12/06 05:23:11;;;;;;;8.55;3.50;;;7.80;82.80;;;;;;5039580;28;20120;-64
2022/12/06 05:25:37;;;;;;;8.50;3.38;;;7.80;82.80;;;;;;5046516;28;20029;-64
2022/12/06 05:28:03;;;;;;;7.53;3.22;;;7.80;82.80;;;;;;5051322;28;20103;-64
2022/12/06 05:30:28;;;;;;;9.00;3.95;;;7.80;82.80;;;;;;5044633;28;20090;-63
2022/12/06 05:32:54;;;;;;;8.50;3.38;;;7.80;82.70;;;;;;5056285;28;20032;-63
2022/12/06 05:35:20;;;;;;;9.25;3.15;;;7.80;82.80;;;;;;5044722;28;20025;-63
2022/12/06 05:37:45;;;;;;;10.02;3.80;;;7.80;82.80;;;;;;5043358;28;20025;-63
2022/12/06 05:40:11;;;;;;;7.70;4.03;;;7.80;82.80;;;;;;5033884;28;20030;-63
2022/12/06 05:42:41;;;;;;;7.80;3.10;;;7.80;82.70;;;;;;5036499;28;20029;-63
2022/12/06 05:45:08;;;;;;;7.20;3.03;;;7.80;82.80;;;;;;5035010;28;20025;-63
2022/12/06 05:47:34;;;;;;;7.90;3.22;;;7.80;82.70;;;;;;5035876;28;20026;-63
2022/12/06 05:50:00;;;;;;;7.28;2.83;;;7.80;83.30;;;;;;5030860;28;20025;-64
2022/12/06 05:52:25;;;;;;;8.45;3.15;;;7.80;82.70;;;;;;5031546;28;20030;-64
2022/12/06 05:54:51;;;;;;;7.17;3.30;;;7.70;82.70;;;;;;5035571;28;20415;-63
2022/12/06 05:57:16;;;;;;;9.00;3.10;;;7.70;82.80;;;;;;5034821;28;20036;-63
2022/12/06 05:59:42;;;;;;;10.73;3.90;;;7.80;82.80;;;;;;5032698;28;20470;-64
2022/12/06 06:02:08;;;;;;;7.93;3.30;;;7.70;82.70;;;;;;5034566;28;20034;-64
2022/12/06 06:04:33;;;;;;;7.43;3.00;;;7.80;82.80;;;;;;5024538;28;20026;-64
2022/12/06 06:06:59;;;;;;;7.28;3.42;;;7.80;82.80;;;;;;5033716;28;20033;-64
2022/12/06 06:09:28;;;;;;;7.47;2.90;;;7.80;82.80;;;;;;5031151;28;20045;-64
2022/12/06 06:11:54;;;;;;;8.25;3.35;;;7.80;82.80;;;;;;5032089;28;20046;-64
2022/12/06 06:14:20;;;;;;;7.05;3.17;;;7.70;82.70;;;;;;5023985;28;20033;-64
2022/12/06 06:16:46;;;;;;;7.90;3.03;;;7.70;82.70;;;;;;5033329;28;20037;-64
2022/12/06 06:19:12;;;;;;;9.60;3.53;;;7.70;82.70;;;;;;5027525;28;20145;-64
2022/12/06 06:21:38;;;;;;;8.37;2.87;;;7.70;82.80;;;;;;5033179;28;20378;-64
2022/12/06 06:24:03;;;;;;;8.50;3.40;;;7.70;82.80;;;;;;5040376;28;20091;-64
2022/12/06 06:26:29;;;;;;;7.93;3.83;;;7.70;82.80;;;;;;5054253;28;20029;-63
2022/12/06 06:28:55;;;;;;;6.60;3.27;;;7.70;82.70;;;;;;5054585;28;20033;-63
2022/12/06 06:31:21;;;;;;;7.50;3.37;;;7.70;82.70;;;;;;5055559;28;20352;-64
2022/12/06 06:33:46;;;;;;;9.27;3.33;;;7.60;82.70;;;;;;5054016;28;20036;-64
2022/12/06 06:36:12;;;;;;;7.85;3.70;;;7.70;82.70;;;;;;5050404;28;20033;-64
2022/12/06 06:38:38;;;;;;;9.00;3.92;;;7.70;82.70;;;;;;5035611;28;20033;-64
2022/12/06 06:41:05;;;;;;;6.82;2.97;;;7.60;82.70;;;;;;5055087;28;20025;-64
2022/12/06 06:43:31;;;;;;;7.85;3.38;;;7.70;82.70;;;;;;5055150;28;20453;-64
2022/12/06 06:46:02;;;;;;;8.18;3.33;;;7.70;82.70;;;;;;5054965;28;20090;-64
2022/12/06 06:48:30;;;;;;;8.17;2.97;;;7.70;82.70;;;;;;5055216;28;20104;-64
2022/12/06 06:51:02;;;;;;;6.97;3.10;;;7.60;82.60;;;;;;5054906;28;20298;-64
2022/12/06 06:53:27;;;;;;;10.03;3.93;;;7.70;82.70;;;;;;5045893;28;20029;-64
2022/12/06 06:55:53;;;;;;;8.38;3.58;;;7.70;82.70;;;;;;5054909;28;20032;-64
2022/12/06 06:58:19;;;;;;;9.13;3.50;;;7.60;82.60;;;;;;5055066;28;20417;-64
2022/12/06 07:00:45;;;;;;;9.85;3.95;;;7.70;82.70;;;;;;5054779;28;20124;-64
2022/12/06 07:03:14;;;;;;;8.70;2.97;;;7.70;82.70;;;;;;5054874;28;20107;-64
2022/12/06 07:05:42;;;;;;;7.93;3.88;;;7.70;82.70;;;;;;5032317;28;20088;-64
2022/12/06 07:08:08;;;;;;;7.27;3.40;;;7.70;82.70;;;;;;5037135;28;20033;-63
2022/12/06 07:10:34;;;;;;;8.67;3.20;;;7.70;82.70;;;;;;5019439;28;20033;-64
2022/12/06 07:13:00;;;;;;;9.20;3.78;;;7.70;82.70;;;;;;5037547;28;20294;-64
2022/12/06 07:15:25;;;;;;;7.10;3.00;;;7.80;82.60;;;;;;5030543;28;20132;-64
2022/12/06 07:17:52;;;;;;;8.20;4.07;;;7.80;82.60;;;;;;5029259;28;20104;-64
2022/12/06 07:20:18;;;;;;;7.57;3.35;;;7.70;82.60;;;;;;5034732;28;20116;-65
2022/12/06 07:22:44;;;;;;;8.63;3.95;;;7.80;82.60;;;;;;5033099;28;20021;-64
2022/12/06 07:25:10;;;;;;;9.13;3.77;;;7.80;82.60;;;;;;5033966;28;20359;-65
2022/12/06 07:27:35;;;;;;;7.90;4.13;;;7.70;82.60;;;;;;5045068;28;20025;-64
2022/12/06 07:30:04;;;;;;;9.48;3.50;;;7.80;82.70;;;;;;5047662;28;20021;-64
2022/12/06 07:32:34;;;;;;;10.75;3.67;;;7.80;82.70;;;;;;5040049;28;20088;-65
2022/12/06 07:35:00;;;;;;;9.40;4.07;;;7.70;82.60;;;;;;5026619;28;20559;-64
2022/12/06 07:37:26;;;;;;;7.40;3.28;;;7.70;82.70;;;;;;5030788;28;20112;-65
2022/12/06 07:39:51;;;;;;;10.00;3.70;;;7.70;82.70;;;;;;5031176;28;20047;-64
2022/12/06 07:45:06;;;;;;;8.73;4.00;;;7.70;82.60;;;;;;5023662;28;20026;-64
2022/12/06 07:47:36;;;;;;;7.30;3.72;;;7.70;82.60;;;;;;5032737;28;20068;-64
2022/12/06 07:50:03;;;;;;;8.97;3.53;;;7.80;82.60;;;;;;5046967;28;20037;-64
2022/12/06 07:52:31;;;;;;;7.90;3.72;;;7.80;82.60;;;;;;5031965;28;20354;-64
2022/12/06 07:54:57;;;;;;;8.57;3.40;;;7.70;82.50;;;;;;5047209;28;20072;-66
2022/12/06 07:57:22;;;;;;;7.53;3.30;;;7.70;82.50;;;;;;5028985;28;20454;-65
2022/12/06 07:59:48;;;;;;;7.20;3.47;;;7.70;82.50;;;;;;5031280;28;20024;-66
2022/12/06 08:02:19;;;;;;;8.15;3.20;;;7.80;82.60;;;;;;5035340;28;20466;-66
2022/12/06 08:04:45;;;;;;;7.35;3.70;;;7.70;82.50;;;;;;5028693;28;20379;-67
2022/12/06 08:07:10;;;;;;;8.13;3.30;;;7.70;82.50;;;;;;5034637;28;20167;-65
2022/12/06 08:09:36;;;;;;;8.65;3.65;;;7.80;82.60;;;;;;5030701;28;20049;-65
2022/12/06 08:12:02;;;;;;;8.35;3.65;;;7.80;82.50;;;;;;5032173;28;20037;-65
2022/12/06 08:14:28;;;;;;;9.43;3.43;;;7.80;82.50;;;;;;5033980;28;20130;-65
2022/12/06 08:16:53;;;;;;;8.38;3.03;;;7.80;82.50;;;;;;5049149;28;20121;-65
2022/12/06 08:19:19;;;;;;;7.93;3.37;;;7.80;82.50;;;;;;5032383;28;20060;-65
2022/12/06 08:21:45;;;;;;;8.70;3.27;;;7.80;82.40;;;;;;5033168;28;20053;-65
2022/12/06 08:24:11;;;;;;;7.13;3.10;;;7.80;82.40;;;;;;5033224;28;20105;-65
2022/12/06 08:26:36;;;;;;;8.43;3.10;;;7.80;82.40;;;;;;5033724;28;20033;-65
2022/12/06 08:29:02;;;;;;;7.13;2.95;;;7.80;82.40;;;;;;5032121;28;20172;-65
2022/12/06 08:31:29;;;;;;;7.50;3.55;;;7.80;82.30;;;;;;5032994;28;20022;-65
2022/12/06 08:33:56;;;;;;;6.73;2.70;;;7.80;82.30;;;;;;5033260;28;20022;-65
2022/12/06 08:36:23;;;;;;;46.67;6.47;;;7.80;82.30;;;;;;5032264;28;20414;-65
2022/12/06 08:38:50;;;;;;;23.48;5.32;;;7.90;82.30;;;;;;5033441;28;20029;-65
2022/12/06 08:44:02;;;;;;;8.17;3.30;;;7.90;82.20;;;;;;5029303;28;20518;-65
2022/12/06 08:46:28;;;;;;;7.27;2.73;;;7.80;82.10;;;;;;5029978;28;20033;-65
2022/12/06 08:48:54;;;;;;;8.05;3.13;;;7.80;82.10;;;;;;5028115;28;20030;-65
2022/12/06 08:51:20;;;;;;;7.47;3.13;;;7.80;82.10;;;;;;5032073;28;20029;-65
2022/12/06 08:53:46;;;;;;;7.05;2.95;;;7.80;82.10;;;;;;5052690;28;20037;-65
2022/12/06 08:56:11;;;;;;;6.83;2.73;;;7.70;82.10;;;;;;5035192;28;20450;-65
2022/12/06 08:58:37;;;;;;;7.90;2.92;;;7.70;82.10;;;;;;5035062;28;20076;-65
2022/12/06 09:01:15;;;;;;;8.40;2.63;;;7.70;82.10;;;;;;5030251;28;20450;-66
2022/12/06 09:03:41;;;;;;;6.30;2.83;;;7.70;82.00;;;;;;5051179;28;20025;-65
2022/12/06 09:06:07;;;;;;;8.80;3.08;;;7.80;82.00;;;;;;5035230;28;20427;-65
2022/12/06 09:08:33;;;;;;;7.20;2.77;;;7.90;81.80;;;;;;5036272;28;20078;-65
2022/12/06 09:10:59;;;;;;;7.90;3.33;;;8.00;81.60;;;;;;5034751;28;20438;-65
2022/12/06 09:13:25;;;;;;;6.23;2.53;;;8.10;81.30;;;;;;5036653;28;20055;-66
2022/12/06 09:15:50;;;;;;;5.53;2.40;;;8.20;81.20;;;;;;5033323;28;20167;-66
2022/12/06 09:18:16;;;;;;;6.28;2.40;;;8.20;81.00;;;;;;5032968;28;20527;-66
2022/12/06 09:20:41;;;;;;;8.07;2.90;;;8.30;80.80;;;;;;5030268;28;20041;-66
2022/12/06 09:23:07;;;;;;;6.10;2.65;;;8.40;80.70;;;;;;5035188;28;20044;-66
2022/12/06 09:25:33;;;;;;;5.47;2.40;;;8.40;80.50;;;;;;5034741;28;20367;-66
2022/12/06 09:27:59;;;;;;;8.82;2.70;;;8.50;80.50;;;;;;5042821;28;20041;-66
2022/12/06 09:30:25;;;;;;;6.57;2.53;;;8.50;80.40;;;;;;5045679;28;20021;-66
2022/12/06 09:32:52;;;;;;;5.65;2.38;;;8.60;80.30;;;;;;5041654;28;20021;-67
2022/12/06 09:35:19;;;;;;;7.68;2.80;;;8.60;80.10;;;;;;5045198;28;20030;-67
2022/12/06 09:37:44;;;;;;;6.70;2.70;;;8.60;80.10;;;;;;5023169;28;20083;-68
2022/12/06 09:40:17;;;;;;;5.18;2.30;;;8.60;80.00;;;;;;5049284;28;20025;-67
2022/12/06 09:42:56;;;;;;;7.65;2.65;;;8.60;80.00;;;;;;5029894;28;20033;-67
2022/12/06 09:45:42;;;;;;;5.03;2.05;;;8.60;79.90;;;;;;5036726;28;20456;-67
2022/12/06 09:48:17;;;;;;;7.43;2.20;;;8.60;80.00;;;;;;5046539;28;20353;-67
2022/12/06 09:50:52;;;;;;;7.05;2.53;;;8.60;80.00;;;;;;5042354;28;20041;-67
2022/12/06 09:53:34;;;;;;;6.05;2.60;;;8.60;79.90;;;;;;5045971;28;20136;-67
2022/12/06 09:56:12;;;;;;;5.50;2.40;;;8.70;79.70;;;;;;5044853;28;20032;-67
2022/12/06 09:58:57;;;;;;;5.35;2.15;;;8.80;79.60;;;;;;5046463;28;20047;-67
2022/12/06 10:01:28;;;;;;;4.45;1.98;;;9.00;79.30;;;;;;5041153;28;20033;-67
2022/12/06 10:04:25;;;;;;;6.32;2.40;;;9.20;78.80;;;;;;5046520;28;20116;-67
2022/12/06 10:07:11;;;;;;;6.22;2.10;;;9.50;78.20;;;;;;5031687;28;20021;-67
2022/12/06 10:10:02;;;;;;;6.43;2.13;;;9.70;77.70;;;;;;5051190;28;20037;-67
2022/12/06 10:13:00;;;;;;;6.18;2.35;;;9.80;77.30;;;;;;5030841;28;20042;-67
2022/12/06 10:15:38;;;;;;;6.28;2.67;;;9.90;77.20;;;;;;5038933;28;20040;-67
2022/12/06 10:18:20;;;;;;;4.30;1.80;;;10.10;76.90;;;;;;5041294;28;20036;-68
2022/12/06 10:20:50;;;;;;;;;;;10.20;76.50;;;;;;5036222;28;20073;-67
2022/12/06 10:23:32;;;;;;;5.35;1.80;;;10.40;76.40;;;;;;5037048;28;19927;-67
2022/12/06 10:26:14;;;;;;;4.07;1.75;;;10.50;75.80;;;;;;5037012;28;20029;-66
2022/12/06 10:29:15;;;;;;;2.83;1.50;;;10.60;75.50;;;;;;5034040;28;20361;-66
2022/12/06 10:32:22;;;;;;;4.88;1.70;;;10.70;75.00;;;;;;5041130;28;20077;-67
2022/12/06 10:35:10;;;;;;;4.90;1.60;;;10.80;74.70;;;;;;5053877;28;20044;-67
2022/12/06 10:38:04;;;;;;;5.35;1.85;;;10.90;74.60;;;;;;5041132;28;20036;-67
2022/12/06 10:40:36;;;;;;;6.30;2.33;;;11.00;74.30;;;;;;5044729;28;20107;-66
2022/12/06 10:43:10;;;;;;;4.78;1.80;;;10.90;74.20;;;;;;5039651;28;20034;-67
2022/12/06 10:48:40;;;;;;;4.88;1.70;;;10.70;74.30;;;;;;5034412;28;20505;-67
2022/12/06 10:51:15;;;;;;;5.97;1.75;;;10.70;74.50;;;;;;5053871;28;20033;-67
2022/12/06 10:53:49;;;;;;;5.80;1.80;;;10.70;74.30;;;;;;5037966;28;20033;-67
2022/12/06 10:56:25;;;;;;;6.20;1.98;;;10.60;74.30;;;;;;5034740;28;20113;-67
2022/12/06 10:59:26;;;;;;;4.57;1.58;;;10.60;74.30;;;;;;5039517;28;20048;-67
2022/12/06 11:01:55;;;;;;;5.22;1.80;;;10.50;74.30;;;;;;5034599;28;20094;-67
2022/12/06 11:04:28;;;;;;;7.05;2.08;;;10.40;74.40;;;;;;5054776;28;20033;-67
2022/12/06 11:07:30;;;;;;;5.90;2.05;;;10.30;74.30;;;;;;5053331;28;20112;-67
2022/12/06 11:09:57;;;;;;;5.88;1.88;;;10.40;74.20;;;;;;5043368;28;20036;-67
2022/12/06 11:12:32;;;;;;;4.97;2.05;;;10.40;74.10;;;;;;5050601;28;20060;-67
2022/12/06 11:15:20;;;;;;;7.13;1.88;;;10.40;73.80;;;;;;5033513;28;20033;-67
2022/12/06 11:17:51;;;;;;;4.38;1.55;;;10.40;73.60;;;;;;5034061;28;20026;-67
2022/12/06 11:20:23;;;;;;;3.05;1.40;;;10.40;73.50;;;;;;5033713;28;20107;-67
2022/12/06 11:23:09;;;;;;;5.38;1.80;;;10.40;74.10;;;;;;5032843;28;20029;-67
2022/12/06 11:25:40;;;;;;;4.15;1.70;;;10.30;73.40;;;;;;5053863;28;20090;-67
2022/12/06 11:28:20;;;;;;;6.17;2.30;;;10.20;73.50;;;;;;5054470;28;20047;-67
2022/12/06 11:30:52;;;;;;;7.03;2.30;;;10.20;73.50;;;;;;5054323;28;20441;-67
2022/12/06 11:33:20;;;;;;;5.18;1.95;;;10.20;73.50;;;;;;5054669;28;20056;-67
2022/12/06 11:35:46;;;;;;;6.13;1.80;;;10.20;73.50;;;;;;5054244;28;20120;-67
2022/12/06 11:38:14;;;;;;;6.53;2.20;;;10.20;73.50;;;;;;5042521;28;20103;-67
2022/12/06 11:40:46;;;;;;;6.57;1.63;;;10.20;73.30;;;;;;5033469;28;20095;-67
2022/12/06 11:43:28;;;;;;;6.47;1.83;;;10.20;73.10;;;;;;5034531;28;20104;-67
2022/12/06 11:45:55;;;;;;;4.45;1.80;;;10.20;73.00;;;;;;5034443;28;20026;-67
2022/12/06 11:48:23;;;;;;;4.85;1.80;;;10.20;73.00;;;;;;5034316;28;20033;-67
2022/12/06 11:50:50;;;;;;;5.32;1.73;;;10.20;72.90;;;;;;5034578;28;20132;-67
2022/12/06 11:53:43;;;;;;;5.15;1.65;;;10.10;72.90;;;;;;5034076;28;20064;-67
2022/12/06 11:56:20;;;;;;;5.40;1.45;;;10.10;72.80;;;;;;5032186;28;20409;-66
2022/12/06 11:59:15;;;;;;;6.90;2.10;;;10.10;72.80;;;;;;5034244;28;20129;-67
2022/12/06 12:01:44;;;;;;;6.65;2.17;;;10.00;72.70;;;;;;5034173;28;20030;-67
2022/12/06 12:04:24;;;;;;;4.28;1.70;;;10.00;72.70;;;;;;5033283;28;20462;-67
2022/12/06 12:07:17;;;;;;;4.70;1.90;;;9.90;72.50;;;;;;5033266;28;20049;-67
2022/12/06 12:09:50;;;;;;;5.53;1.80;;;9.90;72.60;;;;;;5032220;28;20085;-67
2022/12/06 12:15:32;;;;;;;5.35;1.80;;;9.90;72.60;;;;;;5032474;28;20029;-67
2022/12/06 12:17:59;;;;;;;6.00;2.03;;;9.80;72.70;;;;;;5033936;28;20022;-67
2022/12/06 12:20:45;;;;;;;5.47;2.30;;;9.80;72.80;;;;;;5032558;28;20426;-67
2022/12/06 12:23:37;;;;;;;6.13;1.90;;;9.80;72.70;;;;;;5033949;28;20520;-67
2022/12/06 12:26:18;;;;;;;6.13;2.17;;;9.80;72.70;;;;;;5041595;28;20035;-67
2022/12/06 12:29:00;;;;;;;5.95;2.30;;;9.80;72.50;;;;;;5048473;28;20127;-66
2022/12/06 12:31:25;;;;;;;4.80;1.90;;;9.80;72.50;;;;;;5057687;28;20037;-67
2022/12/06 12:34:12;;;;;;;5.70;2.72;;;9.80;72.40;;;;;;5057957;28;20059;-67
2022/12/06 12:36:45;;;;;;;8.15;2.30;;;9.90;72.40;;;;;;5057835;28;20060;-67
2022/12/06 12:39:22;;;;;;;9.05;3.00;;;9.80;72.30;;;;;;5057987;28;20432;-67
2022/12/06 12:41:48;;;;;;;6.95;1.83;;;9.80;72.20;;;;;;5048197;28;20462;-67
2022/12/06 12:44:16;;;;;;;5.93;2.30;;;9.80;72.30;;;;;;5056506;28;20025;-67
2022/12/06 12:46:44;;;;;;;6.15;2.20;;;9.90;72.30;;;;;;5058277;28;20029;-67
2022/12/06 12:49:20;;;;;;;7.75;2.10;;;9.80;72.10;;;;;;5057343;28;20056;-67
2022/12/06 12:51:45;;;;;;;6.60;2.22;;;9.80;72.00;;;;;;5057636;28;20395;-67
2022/12/06 12:54:25;;;;;;;6.32;2.17;;;9.80;72.00;;;;;;5056352;28;20029;-67
2022/12/06 12:56:51;;;;;;;8.98;2.22;;;9.80;72.40;;;;;;5049269;28;20052;-67
2022/12/06 12:59:20;;;;;;;7.45;2.30;;;9.80;71.90;;;;;;5045375;28;20041;-67
2022/12/06 13:02:00;;;;;;;4.97;1.88;;;9.80;71.90;;;;;;5057478;28;20029;-67
2022/12/06 13:04:35;;;;;;;5.57;2.25;;;9.80;71.70;;;;;;5056136;28;20041;-67
2022/12/06 13:07:01;;;;;;;4.18;1.77;;;9.80;71.60;;;;;;5056288;28;20085;-67
2022/12/06 13:09:44;;;;;;;5.50;1.90;;;9.70;71.50;;;;;;5056076;28;20037;-67
2022/12/06 13:12:15;;;;;;;5.50;1.85;;;9.70;71.40;;;;;;5047095;28;20040;-67
2022/12/06 13:14:50;;;;;;;4.22;1.50;;;9.70;71.40;;;;;;5053538;28;20041;-67
2022/12/06 13:17:17;;;;;;;7.20;2.40;;;9.70;71.30;;;;;;5056352;28;20442;-67
2022/12/06 13:19:46;;;;;;;5.88;1.80;;;9.70;71.40;;;;;;5056709;28;20041;-67
2022/12/06 13:22:22;;;;;;;5.95;2.13;;;9.80;71.30;;;;;;5037334;28;20021;-67
2022/12/06 13:25:00;;;;;;;5.13;1.85;;;9.70;71.20;;;;;;5036864;28;20136;-67
2022/12/06 13:27:28;;;;;;;4.60;1.83;;;9.80;71.30;;;;;;5036395;28;20033;-67
2022/12/06 13:30:06;;;;;;;5.78;1.52;;;9.70;71.30;;;;;;5036524;28;20088;-67
2022/12/06 13:32:43;;;;;;;5.45;1.88;;;9.70;72.00;;;;;;5036677;28;20368;-67
2022/12/06 13:35:32;;;;;;;5.88;1.77;;;9.70;71.30;;;;;;5035667;28;20037;-67
2022/12/06 13:38:18;;;;;;;5.25;2.03;;;9.70;71.20;;;;;;5036728;28;20036;-67
2022/12/06 13:40:45;;;;;;;3.55;1.70;;;9.60;71.10;;;;;;5036666;28;20030;-67
2022/12/06 13:43:22;;;;;;;5.45;2.17;;;9.60;71.20;;;;;;5036180;28;20057;-67
2022/12/06 13:45:53;;;;;;;6.82;2.00;;;9.70;71.20;;;;;;5037998;28;20176;-67